sensor_id;sensor_type;location;lat;lon;timestamp;pressure;altitude;pressure_sealevel;temperature;humidity
55068;BME280;40965;52.368;9.712;2022-12-26T00:02:20;100192.22;;;9.24;100.00
55068;BME280;40965;52.368;9.712;2022-12-26T00:04:47;100188.78;;;9.22;100.00
55068;BME280;40965;52.368;9.712;2022-12-26T00:07:13;100189.66;;;9.21;100.00
55068;BME280;40965;52.368;9.712;2022-12-26T00:09:41;100190.50;;;9.24;100.00
55068;BME280;40965;52.368;9.712;2022-12-26T00:12:07;100195.75;;;9.21;100.00
55068;BME280;40965;52.368;9.712;2022-12-26T00:14:33;100193.13;;;9.21;100.00
55068;BME280;40965;52.368;9.712;2022-12-26T00:17:00;100192.31;;;9.18;100.00
55068;BME280;40965;52.368;9.712;2022-12-26T00:19:26;100175.75;;;9.17;100.00
55068;BME280;40965;52.368;9.712;2022-12-26T00:21:53;100188.00;;;9.15;100.00
55068;BME280;40965;52.368;9.712;2022-12-26T00:24:21;100188.88;;;9.14;100.00
55068;BME280;40965;52.368;9.712;2022-12-26T00:26:48;100187.13;;;9.13;100.00
55068;BME280;40965;52.368;9.712;2022-12-26T00:29:15;100191.47;;;9.14;100.00
55068;BME280;40965;52.368;9.712;2022-12-26T00:31:42;100187.16;;;9.12;100.00
55068;BME280;40965;52.368;9.712;2022-12-26T00:34:10;100181.03;;;9.11;100.00
55068;BME280;40965;52.368;9.712;2022-12-26T00:36:37;100179.34;;;9.10;100.00
55068;BME280;40965;52.368;9.712;2022-12-26T00:39:04;100168.91;;;9.07;100.00
55068;BME280;40965;52.368;9.712;2022-12-26T00:41:30;100179.34;;;9.08;100.00
55068;BME280;40965;52.368;9.712;2022-12-26T00:43:57;100175.88;;;9.08;100.00
55068;BME280;40965;52.368;9.712;2022-12-26T00:46:25;100172.41;;;9.07;100.00
55068;BME280;40965;52.368;9.712;2022-12-26T00:48:52;100174.16;;;9.05;100.00
55068;BME280;40965;52.368;9.712;2022-12-26T00:51:19;100171.53;;;9.05;100.00
55068;BME280;40965;52.368;9.712;2022-12-26T00:53:45;100180.25;;;9.04;100.00
55068;BME280;40965;52.368;9.712;2022-12-26T00:56:12;100185.47;;;9.04;100.00
55068;BME280;40965;52.368;9.712;2022-12-26T00:58:41;100181.97;;;9.05;100.00
55068;BME280;40965;52.368;9.712;2022-12-26T01:01:12;100186.34;;;9.06;100.00
55068;BME280;40965;52.368;9.712;2022-12-26T01:03:41;100195.03;;;9.05;100.00
55068;BME280;40965;52.368;9.712;2022-12-26T01:06:08;100210.69;;;9.05;100.00
55068;BME280;40965;52.368;9.712;2022-12-26T01:08:35;100196.78;;;9.03;100.00
55068;BME280;40965;52.368;9.712;2022-12-26T01:11:03;100199.41;;;9.03;100.00
55068;BME280;40965;52.368;9.712;2022-12-26T01:13:31;100190.72;;;9.01;100.00
55068;BME280;40965;52.368;9.712;2022-12-26T01:15:58;100189.84;;;9.01;100.00
55068;BME280;40965;52.368;9.712;2022-12-26T01:18:25;100189.88;;;8.99;100.00
55068;BME280;40965;52.368;9.712;2022-12-26T01:21:00;100187.25;;;8.99;100.00
55068;BME280;40965;52.368;9.712;2022-12-26T01:23:35;100194.25;;;8.96;100.00
55068;BME280;40965;52.368;9.712;2022-12-26T01:26:04;100195.16;;;8.91;100.00
55068;BME280;40965;52.368;9.712;2022-12-26T01:28:31;100203.88;;;8.89;100.00
55068;BME280;40965;52.368;9.712;2022-12-26T01:31:04;100210.00;;;8.86;100.00
55068;BME280;40965;52.368;9.712;2022-12-26T01:33:31;100210.91;;;8.84;100.00
55068;BME280;40965;52.368;9.712;2022-12-26T01:35:58;100210.09;;;8.80;100.00
55068;BME280;40965;52.368;9.712;2022-12-26T01:38:25;100200.53;;;8.76;100.00
55068;BME280;40965;52.368;9.712;2022-12-26T01:40:51;100189.28;;;8.72;100.00
55068;BME280;40965;52.368;9.712;2022-12-26T01:43:55;100206.69;;;8.69;100.00
55068;BME280;40965;52.368;9.712;2022-12-26T01:46:37;100211.94;;;8.64;100.00
55068;BME280;40965;52.368;9.712;2022-12-26T01:49:22;100205.88;;;8.62;100.00
55068;BME280;40965;52.368;9.712;2022-12-26T01:52:03;100217.19;;;8.59;100.00
55068;BME280;40965;52.368;9.712;2022-12-26T01:54:51;100219.00;;;8.53;100.00
55068;BME280;40965;52.368;9.712;2022-12-26T01:57:27;100225.97;;;8.49;100.00
55068;BME280;40965;52.368;9.712;2022-12-26T02:00:06;100223.41;;;8.46;100.00
55068;BME280;40965;52.368;9.712;2022-12-26T02:02:33;100225.13;;;8.38;100.00
55068;BME280;40965;52.368;9.712;2022-12-26T02:05:22;100220.00;;;8.28;100.00
55068;BME280;40965;52.368;9.712;2022-12-26T02:08:16;100211.38;;;8.20;100.00
55068;BME280;40965;52.368;9.712;2022-12-26T02:10:50;100216.59;;;8.14;100.00
55068;BME280;40965;52.368;9.712;2022-12-26T02:13:26;100235.78;;;8.08;100.00
55068;BME280;40965;52.368;9.712;2022-12-26T02:15:53;100234.03;;;8.07;100.00
55068;BME280;40965;52.368;9.712;2022-12-26T02:18:19;100238.38;;;8.08;100.00
55068;BME280;40965;52.368;9.712;2022-12-26T02:20:59;100246.19;;;8.10;100.00
55068;BME280;40965;52.368;9.712;2022-12-26T02:26:50;100243.56;;;8.16;100.00
55068;BME280;40965;52.368;9.712;2022-12-26T02:29:53;100245.28;;;8.19;100.00
55068;BME280;40965;52.368;9.712;2022-12-26T02:32:37;100248.72;;;8.21;100.00
55068;BME280;40965;52.368;9.712;2022-12-26T02:38:17;100240.06;;;8.19;100.00
55068;BME280;40965;52.368;9.712;2022-12-26T02:41:10;100233.09;;;8.18;100.00
55068;BME280;40965;52.368;9.712;2022-12-26T02:43:55;100233.97;;;8.18;100.00
55068;BME280;40965;52.368;9.712;2022-12-26T02:46:58;100238.31;;;8.19;100.00
55068;BME280;40965;52.368;9.712;2022-12-26T02:50:08;100226.13;;;8.18;100.00
55068;BME280;40965;52.368;9.712;2022-12-26T02:56:25;100227.00;;;8.22;100.00
55068;BME280;40965;52.368;9.712;2022-12-26T02:59:40;100239.16;;;8.23;100.00
55068;BME280;40965;52.368;9.712;2022-12-26T03:02:57;100247.81;;;8.26;100.00
55068;BME280;40965;52.368;9.712;2022-12-26T03:05:50;100230.44;;;8.25;100.00
55068;BME280;40965;52.368;9.712;2022-12-26T03:08:42;100238.28;;;8.25;100.00
55068;BME280;40965;52.368;9.712;2022-12-26T03:11:35;100250.44;;;8.28;100.00
55068;BME280;40965;52.368;9.712;2022-12-26T03:14:25;100244.34;;;8.31;100.00
55068;BME280;40965;52.368;9.712;2022-12-26T03:17:00;100239.13;;;8.31;100.00
55068;BME280;40965;52.368;9.712;2022-12-26T03:20:01;100240.84;;;8.33;100.00
55068;BME280;40965;52.368;9.712;2022-12-26T03:22:42;100243.41;;;8.36;100.00
55068;BME280;40965;52.368;9.712;2022-12-26T03:25:16;100234.72;;;8.37;100.00
55068;BME280;40965;52.368;9.712;2022-12-26T03:28:07;100235.56;;;8.41;100.00
55068;BME280;40965;52.368;9.712;2022-12-26T03:30:34;100233.81;;;8.43;100.00
55068;BME280;40965;52.368;9.712;2022-12-26T03:33:26;100231.22;;;8.48;100.00
55068;BME280;40965;52.368;9.712;2022-12-26T03:36:33;100235.53;;;8.50;100.00
55068;BME280;40965;52.368;9.712;2022-12-26T03:39:16;100238.09;;;8.55;100.00
55068;BME280;40965;52.368;9.712;2022-12-26T03:42:45;100240.66;;;8.63;100.00
55068;BME280;40965;52.368;9.712;2022-12-26T03:46:16;100242.38;;;8.64;100.00
55068;BME280;40965;52.368;9.712;2022-12-26T03:49:11;100243.25;;;8.67;100.00
55068;BME280;40965;52.368;9.712;2022-12-26T03:52:13;100241.47;;;8.71;100.00
55068;BME280;40965;52.368;9.712;2022-12-26T03:55:09;100243.25;;;8.67;100.00
55068;BME280;40965;52.368;9.712;2022-12-26T03:58:12;100248.41;;;8.70;100.00
55068;BME280;40965;52.368;9.712;2022-12-26T04:01:03;100252.78;;;8.71;100.00
55068;BME280;40965;52.368;9.712;2022-12-26T04:03:53;100252.81;;;8.64;100.00
55068;BME280;40965;52.368;9.712;2022-12-26T04:06:56;100262.34;;;8.68;100.00
55068;BME280;40965;52.368;9.712;2022-12-26T04:09:50;100259.75;;;8.68;100.00
55068;BME280;40965;52.368;9.712;2022-12-26T04:12:39;100266.72;;;8.64;100.00
55068;BME280;40965;52.368;9.712;2022-12-26T04:15:38;100274.63;;;8.53;100.00
55068;BME280;40965;52.368;9.712;2022-12-26T04:18:36;100272.06;;;8.47;100.00
55068;BME280;40965;52.368;9.712;2022-12-26T04:21:35;100257.25;;;8.52;100.00
55068;BME280;40965;52.368;9.712;2022-12-26T04:24:28;100263.22;;;8.67;100.00
55068;BME280;40965;52.368;9.712;2022-12-26T04:27:16;100259.66;;;8.82;100.00
55068;BME280;40965;52.368;9.712;2022-12-26T04:30:03;100270.03;;;8.86;100.00
55068;BME280;40965;52.368;9.712;2022-12-26T04:32:48;100267.38;;;8.94;100.00
55068;BME280;40965;52.368;9.712;2022-12-26T04:35:41;100268.28;;;8.93;100.00
55068;BME280;40965;52.368;9.712;2022-12-26T04:38:35;100269.97;;;8.94;100.00
55068;BME280;40965;52.368;9.712;2022-12-26T04:41:25;100268.28;;;8.93;100.00
55068;BME280;40965;52.368;9.712;2022-12-26T04:44:12;100264.75;;;8.94;100.00
55068;BME280;40965;52.368;9.712;2022-12-26T04:46:41;100266.56;;;8.87;100.00
55068;BME280;40965;52.368;9.712;2022-12-26T04:49:11;100268.34;;;8.85;100.00
55068;BME280;40965;52.368;9.712;2022-12-26T04:51:58;100264.03;;;8.78;100.00
55068;BME280;40965;52.368;9.712;2022-12-26T04:54:26;100262.34;;;8.72;100.00
55068;BME280;40965;52.368;9.712;2022-12-26T04:56:53;100261.44;;;8.73;100.00
55068;BME280;40965;52.368;9.712;2022-12-26T04:59:20;100261.53;;;8.61;100.00
55068;BME280;40965;52.368;9.712;2022-12-26T05:01:47;100258.06;;;8.59;100.00
55068;BME280;40965;52.368;9.712;2022-12-26T05:04:31;100271.97;;;8.63;100.00
55068;BME280;40965;52.368;9.712;2022-12-26T05:07:19;100283.28;;;8.60;100.00
55068;BME280;40965;52.368;9.712;2022-12-26T05:10:25;100281.53;;;8.62;100.00
55068;BME280;40965;52.368;9.712;2022-12-26T05:12:53;100287.63;;;8.66;100.00
55068;BME280;40965;52.368;9.712;2022-12-26T05:15:20;100291.97;;;8.62;100.00
55068;BME280;40965;52.368;9.712;2022-12-26T05:17:47;100297.22;;;8.56;100.00
55068;BME280;40965;52.368;9.712;2022-12-26T05:20:31;100298.94;;;8.58;100.00
55068;BME280;40965;52.368;9.712;2022-12-26T05:23:22;100305.91;;;8.61;100.00
55068;BME280;40965;52.368;9.712;2022-12-26T05:26:19;100311.09;;;8.64;100.00
55068;BME280;40965;52.368;9.712;2022-12-26T05:29:05;100309.31;;;8.71;100.00
55068;BME280;40965;52.368;9.712;2022-12-26T05:31:32;100311.94;;;8.68;100.00
55068;BME280;40965;52.368;9.712;2022-12-26T05:33:58;100298.00;;;8.72;100.00
55068;BME280;40965;52.368;9.712;2022-12-26T05:36:33;100307.59;;;8.65;100.00
55068;BME280;40965;52.368;9.712;2022-12-26T05:39:01;100316.25;;;8.72;100.00
55068;BME280;40965;52.368;9.712;2022-12-26T05:41:28;100318.91;;;8.64;100.00
55068;BME280;40965;52.368;9.712;2022-12-26T05:43:54;100329.41;;;8.59;100.00
55068;BME280;40965;52.368;9.712;2022-12-26T05:46:21;100328.50;;;8.64;100.00
55068;BME280;40965;52.368;9.712;2022-12-26T05:48:47;100337.22;;;8.61;100.00
55068;BME280;40965;52.368;9.712;2022-12-26T05:51:14;100331.97;;;8.63;100.00
55068;BME280;40965;52.368;9.712;2022-12-26T05:53:40;100331.13;;;8.62;100.00
55068;BME280;40965;52.368;9.712;2022-12-26T05:56:11;100332.88;;;8.58;100.00
55068;BME280;40965;52.368;9.712;2022-12-26T05:58:39;100325.91;;;8.62;100.00
55068;BME280;40965;52.368;9.712;2022-12-26T06:01:14;100332.84;;;8.61;100.00
55068;BME280;40965;52.368;9.712;2022-12-26T06:03:46;100332.78;;;8.69;100.00
55068;BME280;40965;52.368;9.712;2022-12-26T06:06:14;100325.81;;;8.74;100.00
55068;BME280;40965;52.368;9.712;2022-12-26T06:08:42;100315.41;;;8.71;100.00
55068;BME280;40965;52.368;9.712;2022-12-26T06:11:10;100318.03;;;8.67;100.00
55068;BME280;40965;52.368;9.712;2022-12-26T06:13:38;100323.25;;;8.65;100.00
55068;BME280;40965;52.368;9.712;2022-12-26T06:16:07;100318.09;;;8.60;100.00
55068;BME280;40965;52.368;9.712;2022-12-26T06:18:38;100321.63;;;8.52;100.00
55068;BME280;40965;52.368;9.712;2022-12-26T06:21:08;100319.91;;;8.38;100.00
55068;BME280;40965;52.368;9.712;2022-12-26T06:23:39;100315.63;;;8.23;100.00
55068;BME280;40965;52.368;9.712;2022-12-26T06:26:06;100325.22;;;8.18;100.00
55068;BME280;40965;52.368;9.712;2022-12-26T06:28:35;100327.88;;;8.09;100.00
55068;BME280;40965;52.368;9.712;2022-12-26T06:31:03;100342.66;;;7.98;100.00
55068;BME280;40965;52.368;9.712;2022-12-26T06:33:31;100350.53;;;7.91;100.00
55068;BME280;40965;52.368;9.712;2022-12-26T06:36:03;100348.81;;;7.84;100.00
55068;BME280;40965;52.368;9.712;2022-12-26T06:38:36;100351.44;;;7.80;100.00
55068;BME280;40965;52.368;9.712;2022-12-26T06:41:04;100361.88;;;7.73;100.00
55068;BME280;40965;52.368;9.712;2022-12-26T06:43:32;100359.25;;;7.67;100.00
55068;BME280;40965;52.368;9.712;2022-12-26T06:46:00;100359.28;;;7.66;100.00
55068;BME280;40965;52.368;9.712;2022-12-26T06:48:27;100359.25;;;7.69;100.00
55068;BME280;40965;52.368;9.712;2022-12-26T06:50:54;100347.97;;;7.74;100.00
55068;BME280;40965;52.368;9.712;2022-12-26T06:53:22;100352.28;;;7.74;100.00
55068;BME280;40965;52.368;9.712;2022-12-26T06:55:50;100354.91;;;7.74;100.00
55068;BME280;40965;52.368;9.712;2022-12-26T06:58:17;100348.84;;;7.69;100.00
55068;BME280;40965;52.368;9.712;2022-12-26T07:00:43;100342.75;;;7.73;100.00
55068;BME280;40965;52.368;9.712;2022-12-26T07:03:10;100334.06;;;7.80;100.00
55068;BME280;40965;52.368;9.712;2022-12-26T07:05:37;100344.50;;;7.77;100.00
55068;BME280;40965;52.368;9.712;2022-12-26T07:08:04;100341.00;;;7.78;100.00
55068;BME280;40965;52.368;9.712;2022-12-26T07:10:34;100329.72;;;7.76;100.00
55068;BME280;40965;52.368;9.712;2022-12-26T07:13:01;100335.78;;;7.70;100.00
55068;BME280;40965;52.368;9.712;2022-12-26T07:15:27;100346.22;;;7.69;100.00
55068;BME280;40965;52.368;9.712;2022-12-26T07:17:54;100354.94;;;7.65;100.00
55068;BME280;40965;52.368;9.712;2022-12-26T07:20:20;100357.53;;;7.65;100.00
55068;BME280;40965;52.368;9.712;2022-12-26T07:22:47;100344.50;;;7.63;100.00
55068;BME280;40965;52.368;9.712;2022-12-26T07:25:13;100352.31;;;7.63;100.00
55068;BME280;40965;52.368;9.712;2022-12-26T07:27:40;100357.53;;;7.61;100.00
55068;BME280;40965;52.368;9.712;2022-12-26T07:30:07;100346.25;;;7.59;100.00
55068;BME280;40965;52.368;9.712;2022-12-26T07:32:33;100360.13;;;7.68;100.00
55068;BME280;40965;52.368;9.712;2022-12-26T07:35:00;100354.91;;;7.66;100.00
55068;BME280;40965;52.368;9.712;2022-12-26T07:37:26;100353.19;;;7.74;100.00
55068;BME280;40965;52.368;9.712;2022-12-26T07:39:53;100360.09;;;7.75;100.00
55068;BME280;40965;52.368;9.712;2022-12-26T07:42:20;100382.72;;;7.80;100.00
55068;BME280;40965;52.368;9.712;2022-12-26T07:44:46;100370.53;;;7.82;100.00
55068;BME280;40965;52.368;9.712;2022-12-26T07:47:13;100374.88;;;7.83;100.00
55068;BME280;40965;52.368;9.712;2022-12-26T07:49:39;100384.41;;;7.82;100.00
55068;BME280;40965;52.368;9.712;2022-12-26T07:52:05;100387.91;;;7.83;100.00
55068;BME280;40965;52.368;9.712;2022-12-26T07:54:32;100400.03;;;7.82;100.00
55068;BME280;40965;52.368;9.712;2022-12-26T07:56:58;100407.00;;;7.94;100.00
55068;BME280;40965;52.368;9.712;2022-12-26T07:59:25;100400.91;;;7.92;100.00
55068;BME280;40965;52.368;9.712;2022-12-26T08:01:52;100406.09;;;7.95;100.00
55068;BME280;40965;52.368;9.712;2022-12-26T08:04:20;100395.69;;;7.97;100.00
55068;BME280;40965;52.368;9.712;2022-12-26T08:06:47;100398.31;;;7.97;100.00
55068;BME280;40965;52.368;9.712;2022-12-26T08:09:14;100400.88;;;8.01;100.00
55068;BME280;40965;52.368;9.712;2022-12-26T08:11:41;100401.72;;;8.08;100.00
55068;BME280;40965;52.368;9.712;2022-12-26T08:14:10;100405.19;;;8.07;100.00
55068;BME280;40965;52.368;9.712;2022-12-26T08:16:37;100401.72;;;8.14;100.00
55068;BME280;40965;52.368;9.712;2022-12-26T08:19:04;100388.66;;;8.17;100.00
55068;BME280;40965;52.368;9.712;2022-12-26T08:21:30;100406.03;;;8.20;100.00
55068;BME280;40965;52.368;9.712;2022-12-26T08:23:57;100392.97;;;8.29;100.00
55068;BME280;40965;52.368;9.712;2022-12-26T08:26:23;100400.78;;;8.34;100.00
55068;BME280;40965;52.368;9.712;2022-12-26T08:28:50;100412.06;;;8.34;100.00
55068;BME280;40965;52.368;9.712;2022-12-26T08:31:18;100392.97;;;8.34;100.00
55068;BME280;40965;52.368;9.712;2022-12-26T08:33:45;100396.44;;;8.37;100.00
55068;BME280;40965;52.368;9.712;2022-12-26T08:36:13;100400.78;;;8.48;100.00
55068;BME280;40965;52.368;9.712;2022-12-26T08:38:41;100398.16;;;8.49;100.00
55068;BME280;40965;52.368;9.712;2022-12-26T08:41:07;100410.31;;;8.47;100.00
55068;BME280;40965;52.368;9.712;2022-12-26T08:43:34;100411.22;;;8.48;100.00
55068;BME280;40965;52.368;9.712;2022-12-26T08:46:07;100405.97;;;8.49;100.00
55068;BME280;40965;52.368;9.712;2022-12-26T08:48:36;100409.47;;;8.47;100.00
55068;BME280;40965;52.368;9.712;2022-12-26T08:51:06;100412.06;;;8.45;100.00
55068;BME280;40965;52.368;9.712;2022-12-26T08:53:40;100409.47;;;8.37;100.00
55068;BME280;40965;52.368;9.712;2022-12-26T08:56:10;100404.25;;;8.43;100.00
55068;BME280;40965;52.368;9.712;2022-12-26T08:59:15;100412.91;;;8.44;100.00
55068;BME280;40965;52.368;9.712;2022-12-26T09:01:42;100413.81;;;8.40;100.00
55068;BME280;40965;52.368;9.712;2022-12-26T09:04:09;100414.66;;;8.43;100.00
55068;BME280;40965;52.368;9.712;2022-12-26T09:06:37;100422.50;;;8.47;100.00
55068;BME280;40965;52.368;9.712;2022-12-26T09:09:05;100431.19;;;8.52;100.00
55068;BME280;40965;52.368;9.712;2022-12-26T09:11:39;100437.22;;;8.61;100.00
55068;BME280;40965;52.368;9.712;2022-12-26T09:14:05;100427.66;;;8.64;100.00
55068;BME280;40965;52.368;9.712;2022-12-26T09:16:39;100432.00;;;8.65;100.00
55068;BME280;40965;52.368;9.712;2022-12-26T09:19:10;100454.59;;;8.67;100.00
55068;BME280;40965;52.368;9.712;2022-12-26T09:21:42;100445.00;;;8.72;100.00
55068;BME280;40965;52.368;9.712;2022-12-26T09:24:14;100445.88;;;8.71;100.00
55068;BME280;40965;52.368;9.712;2022-12-26T09:26:42;100440.63;;;8.81;100.00
55068;BME280;40965;52.368;9.712;2022-12-26T09:29:10;100435.38;;;8.82;100.00
55068;BME280;40965;52.368;9.712;2022-12-26T09:31:37;100440.59;;;8.85;100.00
55068;BME280;40965;52.368;9.712;2022-12-26T09:34:05;100437.97;;;8.87;100.00
55068;BME280;40965;52.368;9.712;2022-12-26T09:36:36;100446.66;;;8.90;100.00
55068;BME280;40965;52.368;9.712;2022-12-26T09:39:04;100440.56;;;8.88;100.00
55068;BME280;40965;52.368;9.712;2022-12-26T09:41:44;100443.16;;;8.90;100.00
55068;BME280;40965;52.368;9.712;2022-12-26T09:47:33;100436.16;;;9.00;100.00
55068;BME280;40965;52.368;9.712;2022-12-26T09:50:28;100437.91;;;8.98;100.00
55068;BME280;40965;52.368;9.712;2022-12-26T09:53:06;100424.84;;;8.99;100.00
55068;BME280;40965;52.368;9.712;2022-12-26T09:55:37;100423.13;;;9.00;100.00
55068;BME280;40965;52.368;9.712;2022-12-26T09:58:25;100423.88;;;9.11;100.00
55068;BME280;40965;52.368;9.712;2022-12-26T10:01:06;100423.81;;;9.20;100.00
55068;BME280;40965;52.368;9.712;2022-12-26T10:03:50;100410.75;;;9.23;100.00
55068;BME280;40965;52.368;9.712;2022-12-26T10:06:22;100418.63;;;9.22;100.00
55068;BME280;40965;52.368;9.712;2022-12-26T10:09:35;100425.56;;;9.21;100.00
55068;BME280;40965;52.368;9.712;2022-12-26T10:12:33;100435.13;;;9.24;100.00
55068;BME280;40965;52.368;9.712;2022-12-26T10:15:14;100440.34;;;9.24;100.00
55068;BME280;40965;52.368;9.712;2022-12-26T10:17:58;100436.00;;;9.24;100.00
55068;BME280;40965;52.368;9.712;2022-12-26T10:23:56;100430.69;;;9.35;100.00
55068;BME280;40965;52.368;9.712;2022-12-26T10:26:33;100429.78;;;9.44;100.00
55068;BME280;40965;52.368;9.712;2022-12-26T10:37:28;100433.13;;;9.60;100.00
55068;BME280;40965;52.368;9.712;2022-12-26T10:40:20;100419.19;;;9.61;100.00
55068;BME280;40965;52.368;9.712;2022-12-26T10:42:53;100417.44;;;9.60;100.00
55068;BME280;40965;52.368;9.712;2022-12-26T10:45:28;100426.16;;;9.59;100.00
55068;BME280;40965;52.368;9.712;2022-12-26T10:48:04;100411.34;;;9.58;100.00
55068;BME280;40965;52.368;9.712;2022-12-26T10:50:32;100412.31;;;9.49;100.00
55068;BME280;40965;52.368;9.712;2022-12-26T10:53:03;100415.81;;;9.43;100.00
55068;BME280;40965;52.368;9.712;2022-12-26T10:55:32;100423.72;;;9.37;100.00
55068;BME280;40965;52.368;9.712;2022-12-26T10:58:04;100414.19;;;9.32;100.00
55068;BME280;40965;52.368;9.712;2022-12-26T11:00:37;100417.69;;;9.29;100.00
55068;BME280;40965;52.368;9.712;2022-12-26T11:03:12;100420.13;;;9.48;100.00
55068;BME280;40965;52.368;9.712;2022-12-26T11:05:43;100418.25;;;9.65;100.00
55068;BME280;40965;52.368;9.712;2022-12-26T11:08:25;100442.59;;;9.72;100.00
55068;BME280;40965;52.368;9.712;2022-12-26T11:11:03;100429.56;;;9.69;100.00
55068;BME280;40965;52.368;9.712;2022-12-26T11:13:36;100429.56;;;9.69;100.00
55068;BME280;40965;52.368;9.712;2022-12-26T11:16:07;100437.38;;;9.72;100.00
55068;BME280;40965;52.368;9.712;2022-12-26T11:18:48;100425.19;;;9.71;100.00
55068;BME280;40965;52.368;9.712;2022-12-26T11:23:43;100419.13;;;9.64;100.00
55068;BME280;40965;52.368;9.712;2022-12-26T11:26:30;100433.91;;;9.71;100.00
55068;BME280;40965;52.368;9.712;2022-12-26T11:29:08;100429.38;;;9.89;100.00
55068;BME280;40965;52.368;9.712;2022-12-26T11:31:38;100425.81;;;9.96;100.00
55068;BME280;40965;52.368;9.712;2022-12-26T11:34:19;100424.94;;;9.99;100.00
55068;BME280;40965;52.368;9.712;2022-12-26T11:36:50;100423.16;;;9.99;99.82
55068;BME280;40965;52.368;9.712;2022-12-26T11:39:25;100412.75;;;9.94;99.88
55068;BME280;40965;52.368;9.712;2022-12-26T11:41:54;100418.88;;;9.93;99.99
55068;BME280;40965;52.368;9.712;2022-12-26T11:44:28;100411.91;;;9.89;99.72
55068;BME280;40965;52.368;9.712;2022-12-26T11:47:12;100411.81;;;10.02;99.38
55068;BME280;40965;52.368;9.712;2022-12-26T11:52:36;100392.53;;;10.12;98.57
55068;BME280;40965;52.368;9.712;2022-12-26T12:00:36;100384.66;;;10.12;96.04
55068;BME280;40965;52.368;9.712;2022-12-26T12:03:11;100376.81;;;10.12;95.94
55068;BME280;40965;52.368;9.712;2022-12-26T12:09:00;100383.06;;;9.97;97.66
55068;BME280;40965;52.368;9.712;2022-12-26T12:11:45;100393.59;;;9.92;98.55
55068;BME280;40965;52.368;9.712;2022-12-26T12:14:38;100392.81;;;9.83;99.58
55068;BME280;40965;52.368;9.712;2022-12-26T12:17:54;100385.97;;;9.74;100.00
55068;BME280;40965;52.368;9.712;2022-12-26T12:20:53;100385.13;;;9.67;100.00
55068;BME280;40965;52.368;9.712;2022-12-26T12:24:02;100387.00;;;9.56;100.00
55068;BME280;40965;52.368;9.712;2022-12-26T12:27:09;100366.91;;;9.58;100.00
55068;BME280;40965;52.368;9.712;2022-12-26T12:33:20;100365.84;;;9.77;99.84
55068;BME280;40965;52.368;9.712;2022-12-26T12:36:10;100363.16;;;9.87;97.69
55068;BME280;40965;52.368;9.712;2022-12-26T12:39:10;100358.78;;;9.87;97.61
55068;BME280;40965;52.368;9.712;2022-12-26T12:42:07;100356.84;;;10.06;95.50
55068;BME280;40965;52.368;9.712;2022-12-26T12:45:02;100353.22;;;10.17;95.01
55068;BME280;40965;52.368;9.712;2022-12-26T12:47:46;100358.47;;;10.15;94.21
55068;BME280;40965;52.368;9.712;2022-12-26T12:50:31;100358.34;;;10.24;92.89
55068;BME280;40965;52.368;9.712;2022-12-26T12:53:12;100363.59;;;10.24;93.50
55068;BME280;40965;52.368;9.712;2022-12-26T13:02:04;100356.66;;;10.20;94.11
55068;BME280;40965;52.368;9.712;2022-12-26T13:05:05;100362.75;;;10.22;93.74
55068;BME280;40965;52.368;9.712;2022-12-26T13:08:04;100340.88;;;10.28;92.45
55068;BME280;40965;52.368;9.712;2022-12-26T13:10:46;100356.56;;;10.30;92.79
55068;BME280;40965;52.368;9.712;2022-12-26T13:13:31;100351.28;;;10.33;93.04
55068;BME280;40965;52.368;9.712;2022-12-26T13:16:26;100350.38;;;10.38;92.51
55068;BME280;40965;52.368;9.712;2022-12-26T13:18:59;100352.09;;;10.41;92.37
55068;BME280;40965;52.368;9.712;2022-12-26T13:21:30;100355.66;;;10.35;92.17
55068;BME280;40965;52.368;9.712;2022-12-26T13:24:19;100364.41;;;10.28;93.01
55068;BME280;40965;52.368;9.712;2022-12-26T13:29:40;100363.69;;;10.18;93.44
55068;BME280;40965;52.368;9.712;2022-12-26T13:32:22;100339.22;;;10.22;92.11
55068;BME280;40965;52.368;9.712;2022-12-26T13:34:58;100355.84;;;10.18;92.65
55068;BME280;40965;52.368;9.712;2022-12-26T13:42:38;100392.06;;;9.70;100.00
55068;BME280;40965;52.368;9.712;2022-12-26T13:50:54;100410.16;;;8.83;100.00
55068;BME280;40965;52.368;9.712;2022-12-26T13:55:54;100440.69;;;8.70;100.00
55068;BME280;40965;52.368;9.712;2022-12-26T14:07:21;100461.66;;;8.28;100.00
55068;BME280;40965;52.368;9.712;2022-12-26T14:10:25;100460.81;;;8.09;100.00
55068;BME280;40965;52.368;9.712;2022-12-26T14:13:31;100459.97;;;7.94;100.00
55068;BME280;40965;52.368;9.712;2022-12-26T14:16:17;100476.50;;;7.81;100.00
55068;BME280;40965;52.368;9.712;2022-12-26T14:19:04;100473.91;;;7.75;100.00
55068;BME280;40965;52.368;9.712;2022-12-26T14:22:06;100486.94;;;7.72;100.00
55068;BME280;40965;52.368;9.712;2022-12-26T14:28:09;100499.94;;;7.58;100.00
55068;BME280;40965;52.368;9.712;2022-12-26T14:31:03;100523.38;;;7.53;100.00
55068;BME280;40965;52.368;9.712;2022-12-26T14:33:55;100525.97;;;7.44;100.00
55068;BME280;40965;52.368;9.712;2022-12-26T14:36:42;100533.75;;;7.35;100.00
55068;BME280;40965;52.368;9.712;2022-12-26T14:39:53;100545.91;;;7.25;100.00
55068;BME280;40965;52.368;9.712;2022-12-26T14:42:28;100553.66;;;7.16;100.00
55068;BME280;40965;52.368;9.712;2022-12-26T14:48:36;100565.75;;;7.01;100.00
55068;BME280;40965;52.368;9.712;2022-12-26T14:53:39;100594.25;;;6.76;100.00
55068;BME280;40965;52.368;9.712;2022-12-26T15:03:43;100600.19;;;6.52;100.00
55068;BME280;40965;52.368;9.712;2022-12-26T15:12:30;100612.16;;;6.30;100.00
55068;BME280;40965;52.368;9.712;2022-12-26T15:15:32;100616.34;;;6.12;100.00
55068;BME280;40965;52.368;9.712;2022-12-26T15:19:00;100636.09;;;5.96;100.00
55068;BME280;40965;52.368;9.712;2022-12-26T15:21:35;100642.03;;;5.86;100.00